sensor_id;sensor_type;location;lat;lon;timestamp;P1;durP1;ratioP1;P2;durP2;ratioP2
50779;SDS011;36748;37.428;-121.972;2023-04-01T00:01:00;5.00;;;1.27;;
50779;SDS011;36748;37.428;-121.972;2023-04-01T00:03:27;6.78;;;1.10;;
50779;SDS011;36748;37.428;-121.972;2023-04-01T00:05:55;3.55;;;1.27;;
50779;SDS011;36748;37.428;-121.972;2023-04-01T00:08:22;3.75;;;1.38;;
50779;SDS011;36748;37.428;-121.972;2023-04-01T00:10:49;6.78;;;1.40;;
50779;SDS011;36748;37.428;-121.972;2023-04-01T00:13:15;3.67;;;1.30;;
50779;SDS011;36748;37.428;-121.972;2023-04-01T00:15:42;4.90;;;1.33;;
50779;SDS011;36748;37.428;-121.972;2023-04-01T00:18:08;4.38;;;1.20;;
50779;SDS011;36748;37.428;-121.972;2023-04-01T00:20:34;7.40;;;1.40;;
50779;SDS011;36748;37.428;-121.972;2023-04-01T00:23:01;5.45;;;1.17;;
50779;SDS011;36748;37.428;-121.972;2023-04-01T00:25:28;3.92;;;1.20;;
50779;SDS011;36748;37.428;-121.972;2023-04-01T00:27:54;4.28;;;1.20;;
50779;SDS011;36748;37.428;-121.972;2023-04-01T00:30:20;2.83;;;1.10;;
50779;SDS011;36748;37.428;-121.972;2023-04-01T00:32:47;3.47;;;1.17;;
50779;SDS011;36748;37.428;-121.972;2023-04-01T00:35:18;4.78;;;1.80;;
50779;SDS011;36748;37.428;-121.972;2023-04-01T00:37:44;4.80;;;1.70;;
50779;SDS011;36748;37.428;-121.972;2023-04-01T00:40:21;5.60;;;1.50;;
50779;SDS011;36748;37.428;-121.972;2023-04-01T00:42:50;7.70;;;1.30;;
50779;SDS011;36748;37.428;-121.972;2023-04-01T00:48:02;9.43;;;1.70;;
50779;SDS011;36748;37.428;-121.972;2023-04-01T00:50:39;9.65;;;1.35;;
50779;SDS011;36748;37.428;-121.972;2023-04-01T00:53:08;5.35;;;1.27;;
50779;SDS011;36748;37.428;-121.972;2023-04-01T00:55:35;5.82;;;1.55;;
50779;SDS011;36748;37.428;-121.972;2023-04-01T00:58:03;4.00;;;1.35;;
50779;SDS011;36748;37.428;-121.972;2023-04-01T01:00:31;5.05;;;1.25;;
50779;SDS011;36748;37.428;-121.972;2023-04-01T01:02:58;3.65;;;1.08;;
50779;SDS011;36748;37.428;-121.972;2023-04-01T01:05:28;4.00;;;1.45;;
50779;SDS011;36748;37.428;-121.972;2023-04-01T01:10:33;5.40;;;1.45;;
50779;SDS011;36748;37.428;-121.972;2023-04-01T01:21:13;8.45;;;1.58;;
50779;SDS011;36748;37.428;-121.972;2023-04-01T01:32:12;5.13;;;1.58;;
50779;SDS011;36748;37.428;-121.972;2023-04-01T01:34:48;6.10;;;1.38;;
50779;SDS011;36748;37.428;-121.972;2023-04-01T01:37:25;5.85;;;1.85;;
50779;SDS011;36748;37.428;-121.972;2023-04-01T01:39:54;7.63;;;1.80;;
50779;SDS011;36748;37.428;-121.972;2023-04-01T01:42:22;3.35;;;1.35;;
50779;SDS011;36748;37.428;-121.972;2023-04-01T01:44:50;4.18;;;1.25;;
50779;SDS011;36748;37.428;-121.972;2023-04-01T01:47:18;2.55;;;1.40;;
50779;SDS011;36748;37.428;-121.972;2023-04-01T01:49:45;4.72;;;1.20;;
50779;SDS011;36748;37.428;-121.972;2023-04-01T01:52:12;5.32;;;1.52;;
50779;SDS011;36748;37.428;-121.972;2023-04-01T01:55:40;4.68;;;1.65;;
50779;SDS011;36748;37.428;-121.972;2023-04-01T01:57:54;11.52;;;1.70;;
50779;SDS011;36748;37.428;-121.972;2023-04-01T02:00:23;6.00;;;1.52;;
50779;SDS011;36748;37.428;-121.972;2023-04-01T02:02:50;3.63;;;1.25;;
50779;SDS011;36748;37.428;-121.972;2023-04-01T02:05:21;2.28;;;1.33;;
50779;SDS011;36748;37.428;-121.972;2023-04-01T02:07:57;13.23;;;2.15;;
50779;SDS011;36748;37.428;-121.972;2023-04-01T02:10:59;6.60;;;1.40;;
50779;SDS011;36748;37.428;-121.972;2023-04-01T02:14:09;3.35;;;1.20;;
50779;SDS011;36748;37.428;-121.972;2023-04-01T02:16:28;3.85;;;1.33;;
50779;SDS011;36748;37.428;-121.972;2023-04-01T02:19:00;4.40;;;1.42;;
50779;SDS011;36748;37.428;-121.972;2023-04-01T02:21:29;2.40;;;1.13;;
50779;SDS011;36748;37.428;-121.972;2023-04-01T02:23:57;4.20;;;1.67;;
50779;SDS011;36748;37.428;-121.972;2023-04-01T02:26:24;3.13;;;1.60;;
50779;SDS011;36748;37.428;-121.972;2023-04-01T02:28:52;4.53;;;1.42;;
50779;SDS011;36748;37.428;-121.972;2023-04-01T02:31:20;4.40;;;1.17;;
50779;SDS011;36748;37.428;-121.972;2023-04-01T02:33:47;3.28;;;1.35;;
50779;SDS011;36748;37.428;-121.972;2023-04-01T02:36:13;4.57;;;1.60;;
50779;SDS011;36748;37.428;-121.972;2023-04-01T02:38:41;2.90;;;1.13;;
50779;SDS011;36748;37.428;-121.972;2023-04-01T02:41:07;2.35;;;1.20;;
50779;SDS011;36748;37.428;-121.972;2023-04-01T02:43:34;3.80;;;1.38;;
50779;SDS011;36748;37.428;-121.972;2023-04-01T02:46:00;3.40;;;1.13;;
50779;SDS011;36748;37.428;-121.972;2023-04-01T02:48:28;5.20;;;1.45;;
50779;SDS011;36748;37.428;-121.972;2023-04-01T02:50:54;3.47;;;1.98;;
50779;SDS011;36748;37.428;-121.972;2023-04-01T02:53:21;24.48;;;13.30;;
50779;SDS011;36748;37.428;-121.972;2023-04-01T02:55:47;17.55;;;9.50;;
50779;SDS011;36748;37.428;-121.972;2023-04-01T02:58:16;16.05;;;9.77;;
50779;SDS011;36748;37.428;-121.972;2023-04-01T03:00:42;24.33;;;12.57;;
50779;SDS011;36748;37.428;-121.972;2023-04-01T03:03:08;29.67;;;13.45;;
50779;SDS011;36748;37.428;-121.972;2023-04-01T03:05:35;37.65;;;15.23;;
50779;SDS011;36748;37.428;-121.972;2023-04-01T03:08:01;24.75;;;13.88;;
50779;SDS011;36748;37.428;-121.972;2023-04-01T03:10:28;26.00;;;13.55;;
50779;SDS011;36748;37.428;-121.972;2023-04-01T03:12:54;22.20;;;12.07;;
50779;SDS011;36748;37.428;-121.972;2023-04-01T03:15:20;26.00;;;12.00;;
50779;SDS011;36748;37.428;-121.972;2023-04-01T03:17:47;22.15;;;11.80;;
50779;SDS011;36748;37.428;-121.972;2023-04-01T03:20:13;20.52;;;11.57;;
50779;SDS011;36748;37.428;-121.972;2023-04-01T03:22:40;18.35;;;11.15;;
50779;SDS011;36748;37.428;-121.972;2023-04-01T03:25:06;20.02;;;11.50;;
50779;SDS011;36748;37.428;-121.972;2023-04-01T03:27:33;21.63;;;11.13;;
50779;SDS011;36748;37.428;-121.972;2023-04-01T03:30:01;16.67;;;10.20;;
50779;SDS011;36748;37.428;-121.972;2023-04-01T03:32:31;20.92;;;10.40;;
50779;SDS011;36748;37.428;-121.972;2023-04-01T03:34:58;22.55;;;10.80;;
50779;SDS011;36748;37.428;-121.972;2023-04-01T03:37:24;22.88;;;10.50;;
50779;SDS011;36748;37.428;-121.972;2023-04-01T03:39:50;17.23;;;10.70;;
50779;SDS011;36748;37.428;-121.972;2023-04-01T03:42:17;16.40;;;10.23;;
50779;SDS011;36748;37.428;-121.972;2023-04-01T03:44:43;15.25;;;9.40;;
50779;SDS011;36748;37.428;-121.972;2023-04-01T03:47:10;14.80;;;9.52;;
50779;SDS011;36748;37.428;-121.972;2023-04-01T03:49:36;16.10;;;9.57;;
50779;SDS011;36748;37.428;-121.972;2023-04-01T03:52:02;15.70;;;9.50;;
50779;SDS011;36748;37.428;-121.972;2023-04-01T03:54:29;13.15;;;9.00;;
50779;SDS011;36748;37.428;-121.972;2023-04-01T03:56:55;18.20;;;9.80;;
50779;SDS011;36748;37.428;-121.972;2023-04-01T03:59:23;14.73;;;8.98;;
50779;SDS011;36748;37.428;-121.972;2023-04-01T04:01:49;11.57;;;7.78;;
50779;SDS011;36748;37.428;-121.972;2023-04-01T04:04:15;13.10;;;7.95;;
50779;SDS011;36748;37.428;-121.972;2023-04-01T04:06:42;14.13;;;8.38;;
50779;SDS011;36748;37.428;-121.972;2023-04-01T04:09:09;14.57;;;8.40;;
50779;SDS011;36748;37.428;-121.972;2023-04-01T04:11:35;11.32;;;7.45;;
50779;SDS011;36748;37.428;-121.972;2023-04-01T04:14:01;11.75;;;7.63;;
50779;SDS011;36748;37.428;-121.972;2023-04-01T04:16:27;13.13;;;8.30;;
50779;SDS011;36748;37.428;-121.972;2023-04-01T04:18:54;13.10;;;7.47;;
50779;SDS011;36748;37.428;-121.972;2023-04-01T04:21:20;14.45;;;8.18;;
50779;SDS011;36748;37.428;-121.972;2023-04-01T04:23:46;10.73;;;7.03;;
50779;SDS011;36748;37.428;-121.972;2023-04-01T04:26:13;11.00;;;7.10;;
50779;SDS011;36748;37.428;-121.972;2023-04-01T04:28:40;9.73;;;7.18;;
50779;SDS011;36748;37.428;-121.972;2023-04-01T04:31:09;10.98;;;6.72;;
50779;SDS011;36748;37.428;-121.972;2023-04-01T04:33:36;12.40;;;7.72;;
50779;SDS011;36748;37.428;-121.972;2023-04-01T04:36:09;13.43;;;7.00;;
50779;SDS011;36748;37.428;-121.972;2023-04-01T04:38:39;13.82;;;7.03;;
50779;SDS011;36748;37.428;-121.972;2023-04-01T04:41:13;13.13;;;6.97;;
50779;SDS011;36748;37.428;-121.972;2023-04-01T04:43:40;9.90;;;6.72;;
50779;SDS011;36748;37.428;-121.972;2023-04-01T04:46:07;11.98;;;6.45;;
50779;SDS011;36748;37.428;-121.972;2023-04-01T04:48:34;14.85;;;6.78;;
50779;SDS011;36748;37.428;-121.972;2023-04-01T04:51:01;10.93;;;6.07;;
50779;SDS011;36748;37.428;-121.972;2023-04-01T04:53:28;8.90;;;6.10;;
50779;SDS011;36748;37.428;-121.972;2023-04-01T04:55:55;13.38;;;6.65;;
50779;SDS011;36748;37.428;-121.972;2023-04-01T04:58:21;9.77;;;6.43;;
50779;SDS011;36748;37.428;-121.972;2023-04-01T05:00:47;11.13;;;6.57;;
50779;SDS011;36748;37.428;-121.972;2023-04-01T05:03:13;10.85;;;6.55;;
50779;SDS011;36748;37.428;-121.972;2023-04-01T05:05:40;8.63;;;5.93;;
50779;SDS011;36748;37.428;-121.972;2023-04-01T05:08:17;10.00;;;5.65;;
50779;SDS011;36748;37.428;-121.972;2023-04-01T05:10:43;9.50;;;5.90;;
50779;SDS011;36748;37.428;-121.972;2023-04-01T05:13:10;9.82;;;5.75;;
50779;SDS011;36748;37.428;-121.972;2023-04-01T05:15:36;10.10;;;5.45;;
50779;SDS011;36748;37.428;-121.972;2023-04-01T05:18:03;9.27;;;5.28;;
50779;SDS011;36748;37.428;-121.972;2023-04-01T05:20:29;7.93;;;5.15;;
50779;SDS011;36748;37.428;-121.972;2023-04-01T05:22:56;7.82;;;5.70;;
50779;SDS011;36748;37.428;-121.972;2023-04-01T05:25:22;10.52;;;5.45;;
50779;SDS011;36748;37.428;-121.972;2023-04-01T05:27:49;9.80;;;5.55;;
50779;SDS011;36748;37.428;-121.972;2023-04-01T05:30:15;7.63;;;5.35;;
50779;SDS011;36748;37.428;-121.972;2023-04-01T05:32:41;10.90;;;5.70;;
50779;SDS011;36748;37.428;-121.972;2023-04-01T05:35:09;8.85;;;5.43;;
50779;SDS011;36748;37.428;-121.972;2023-04-01T05:37:36;8.25;;;5.60;;
50779;SDS011;36748;37.428;-121.972;2023-04-01T05:40:02;13.82;;;5.13;;
50779;SDS011;36748;37.428;-121.972;2023-04-01T05:42:30;8.55;;;5.05;;
50779;SDS011;36748;37.428;-121.972;2023-04-01T05:44:56;8.50;;;4.70;;
50779;SDS011;36748;37.428;-121.972;2023-04-01T05:47:23;7.53;;;4.18;;
50779;SDS011;36748;37.428;-121.972;2023-04-01T05:49:49;7.63;;;4.53;;
50779;SDS011;36748;37.428;-121.972;2023-04-01T05:52:16;7.32;;;4.93;;
50779;SDS011;36748;37.428;-121.972;2023-04-01T05:54:42;7.10;;;4.60;;
50779;SDS011;36748;37.428;-121.972;2023-04-01T05:57:09;6.00;;;4.60;;
50779;SDS011;36748;37.428;-121.972;2023-04-01T05:59:35;6.20;;;4.43;;
50779;SDS011;36748;37.428;-121.972;2023-04-01T06:02:01;8.95;;;4.63;;
50779;SDS011;36748;37.428;-121.972;2023-04-01T06:04:28;7.15;;;4.10;;
50779;SDS011;36748;37.428;-121.972;2023-04-01T06:07:00;8.02;;;4.47;;
50779;SDS011;36748;37.428;-121.972;2023-04-01T06:09:30;7.90;;;4.00;;
50779;SDS011;36748;37.428;-121.972;2023-04-01T06:33:47;4.97;;;3.08;;
50779;SDS011;36748;37.428;-121.972;2023-04-01T06:36:26;7.00;;;3.90;;
50779;SDS011;36748;37.428;-121.972;2023-04-01T06:39:18;5.63;;;3.50;;
50779;SDS011;36748;37.428;-121.972;2023-04-01T06:42:14;5.25;;;3.42;;
50779;SDS011;36748;37.428;-121.972;2023-04-01T06:44:57;6.18;;;3.60;;
50779;SDS011;36748;37.428;-121.972;2023-04-01T06:50:56;5.35;;;3.45;;
50779;SDS011;36748;37.428;-121.972;2023-04-01T06:53:54;5.00;;;3.50;;
50779;SDS011;36748;37.428;-121.972;2023-04-01T06:56:24;5.85;;;3.40;;
50779;SDS011;36748;37.428;-121.972;2023-04-01T07:04:40;5.35;;;3.40;;
50779;SDS011;36748;37.428;-121.972;2023-04-01T07:09:59;4.68;;;3.20;;
50779;SDS011;36748;37.428;-121.972;2023-04-01T07:12:36;5.25;;;2.88;;
50779;SDS011;36748;37.428;-121.972;2023-04-01T07:15:24;5.10;;;3.30;;
50779;SDS011;36748;37.428;-121.972;2023-04-01T07:18:37;7.38;;;3.40;;
50779;SDS011;36748;37.428;-121.972;2023-04-01T07:20:45;5.43;;;2.95;;
50779;SDS011;36748;37.428;-121.972;2023-04-01T07:23:56;5.25;;;3.03;;
50779;SDS011;36748;37.428;-121.972;2023-04-01T07:26:07;6.47;;;3.50;;
50779;SDS011;36748;37.428;-121.972;2023-04-01T07:28:43;4.32;;;2.88;;
50779;SDS011;36748;37.428;-121.972;2023-04-01T07:37:26;3.20;;;2.33;;
50779;SDS011;36748;37.428;-121.972;2023-04-01T07:39:48;7.20;;;2.50;;
50779;SDS011;36748;37.428;-121.972;2023-04-01T07:42:57;4.22;;;2.60;;
50779;SDS011;36748;37.428;-121.972;2023-04-01T07:45:42;3.30;;;2.65;;
50779;SDS011;36748;37.428;-121.972;2023-04-01T07:48:30;3.25;;;2.42;;
50779;SDS011;36748;37.428;-121.972;2023-04-01T07:51:12;5.55;;;3.15;;
50779;SDS011;36748;37.428;-121.972;2023-04-01T07:53:53;3.75;;;2.45;;
50779;SDS011;36748;37.428;-121.972;2023-04-01T07:59:40;4.65;;;2.80;;
50779;SDS011;36748;37.428;-121.972;2023-04-01T08:05:29;4.28;;;2.53;;
50779;SDS011;36748;37.428;-121.972;2023-04-01T08:11:15;3.20;;;2.35;;
50779;SDS011;36748;37.428;-121.972;2023-04-01T08:14:48;3.88;;;2.58;;
50779;SDS011;36748;37.428;-121.972;2023-04-01T08:22:18;3.85;;;2.38;;
50779;SDS011;36748;37.428;-121.972;2023-04-01T08:24:49;3.92;;;2.28;;
50779;SDS011;36748;37.428;-121.972;2023-04-01T08:27:21;3.90;;;2.28;;
50779;SDS011;36748;37.428;-121.972;2023-04-01T08:30:19;3.40;;;2.10;;
50779;SDS011;36748;37.428;-121.972;2023-04-01T08:35:31;4.00;;;2.20;;
50779;SDS011;36748;37.428;-121.972;2023-04-01T08:38:01;3.42;;;2.00;;
50779;SDS011;36748;37.428;-121.972;2023-04-01T08:57:00;4.60;;;2.13;;
50779;SDS011;36748;37.428;-121.972;2023-04-01T09:05:47;2.97;;;1.98;;
50779;SDS011;36748;37.428;-121.972;2023-04-01T09:14:02;4.32;;;2.05;;
50779;SDS011;36748;37.428;-121.972;2023-04-01T09:33:46;2.80;;;1.80;;
50779;SDS011;36748;37.428;-121.972;2023-04-01T09:39:22;1.85;;;1.35;;
50779;SDS011;36748;37.428;-121.972;2023-04-01T09:58:00;3.05;;;1.92;;
50779;SDS011;36748;37.428;-121.972;2023-04-01T10:03:51;2.50;;;1.77;;
50779;SDS011;36748;37.428;-121.972;2023-04-01T10:06:32;2.35;;;1.73;;
50779;SDS011;36748;37.428;-121.972;2023-04-01T10:12:16;2.50;;;1.67;;
50779;SDS011;36748;37.428;-121.972;2023-04-01T10:20:46;1.70;;;1.38;;
50779;SDS011;36748;37.428;-121.972;2023-04-01T10:41:30;1.70;;;1.08;;
50779;SDS011;36748;37.428;-121.972;2023-04-01T10:43:58;1.63;;;1.27;;
50779;SDS011;36748;37.428;-121.972;2023-04-01T11:12:28;1.90;;;1.10;;
50779;SDS011;36748;37.428;-121.972;2023-04-01T11:23:45;1.63;;;1.25;;
50779;SDS011;36748;37.428;-121.972;2023-04-01T11:26:19;1.45;;;1.15;;
50779;SDS011;36748;37.428;-121.972;2023-04-01T11:48:23;1.67;;;1.10;;
50779;SDS011;36748;37.428;-121.972;2023-04-01T11:51:18;1.65;;;1.23;;
50779;SDS011;36748;37.428;-121.972;2023-04-01T11:56:59;2.67;;;1.40;;
50779;SDS011;36748;37.428;-121.972;2023-04-01T12:08:23;2.03;;;1.00;;
50779;SDS011;36748;37.428;-121.972;2023-04-01T12:13:26;1.55;;;1.05;;
50779;SDS011;36748;37.428;-121.972;2023-04-01T12:16:11;1.55;;;0.85;;
50779;SDS011;36748;37.428;-121.972;2023-04-01T12:18:49;1.60;;;1.10;;
50779;SDS011;36748;37.428;-121.972;2023-04-01T12:24:22;1.58;;;0.82;;
50779;SDS011;36748;37.428;-121.972;2023-04-01T12:35:22;0.98;;;0.82;;
50779;SDS011;36748;37.428;-121.972;2023-04-01T12:43:04;0.98;;;0.80;;
50779;SDS011;36748;37.428;-121.972;2023-04-01T12:51:37;1.02;;;0.88;;
50779;SDS011;36748;37.428;-121.972;2023-04-01T12:54:15;0.90;;;0.70;;
50779;SDS011;36748;37.428;-121.972;2023-04-01T12:57:05;1.25;;;0.77;;
50779;SDS011;36748;37.428;-121.972;2023-04-01T12:59:57;1.20;;;0.70;;
50779;SDS011;36748;37.428;-121.972;2023-04-01T13:05:32;0.73;;;0.70;;
50779;SDS011;36748;37.428;-121.972;2023-04-01T13:08:12;1.83;;;0.73;;
50779;SDS011;36748;37.428;-121.972;2023-04-01T13:13:53;0.98;;;0.60;;
50779;SDS011;36748;37.428;-121.972;2023-04-01T13:16:46;1.52;;;0.70;;
50779;SDS011;36748;37.428;-121.972;2023-04-01T13:25:02;0.73;;;0.70;;
50779;SDS011;36748;37.428;-121.972;2023-04-01T13:33:01;1.25;;;0.68;;
50779;SDS011;36748;37.428;-121.972;2023-04-01T13:40:55;1.00;;;0.77;;
50779;SDS011;36748;37.428;-121.972;2023-04-01T13:46:24;0.95;;;0.70;;
50779;SDS011;36748;37.428;-121.972;2023-04-01T13:58:07;0.68;;;0.65;;
50779;SDS011;36748;37.428;-121.972;2023-04-01T14:01:13;1.48;;;1.10;;
50779;SDS011;36748;37.428;-121.972;2023-04-01T14:07:03;1.02;;;0.60;;
50779;SDS011;36748;37.428;-121.972;2023-04-01T14:09:45;0.77;;;0.60;;
50779;SDS011;36748;37.428;-121.972;2023-04-01T14:12:26;1.05;;;0.60;;
50779;SDS011;36748;37.428;-121.972;2023-04-01T14:17:59;0.95;;;0.80;;
50779;SDS011;36748;37.428;-121.972;2023-04-01T14:20:51;0.65;;;0.65;;
50779;SDS011;36748;37.428;-121.972;2023-04-01T14:23:45;1.08;;;0.73;;
50779;SDS011;36748;37.428;-121.972;2023-04-01T14:54:05;12.65;;;1.48;;
50779;SDS011;36748;37.428;-121.972;2023-04-01T14:59:13;6.70;;;1.70;;
50779;SDS011;36748;37.428;-121.972;2023-04-01T15:01:43;2.88;;;1.15;;
50779;SDS011;36748;37.428;-121.972;2023-04-01T15:04:31;1.92;;;1.20;;
50779;SDS011;36748;37.428;-121.972;2023-04-01T15:10:19;4.25;;;1.20;;
50779;SDS011;36748;37.428;-121.972;2023-04-01T15:24:20;6.43;;;1.10;;
50779;SDS011;36748;37.428;-121.972;2023-04-01T15:29:24;2.35;;;1.05;;
50779;SDS011;36748;37.428;-121.972;2023-04-01T15:35:13;1.33;;;0.90;;
50779;SDS011;36748;37.428;-121.972;2023-04-01T15:43:45;2.10;;;0.65;;
50779;SDS011;36748;37.428;-121.972;2023-04-01T15:49:03;3.20;;;0.98;;
50779;SDS011;36748;37.428;-121.972;2023-04-01T16:07:54;1.85;;;1.00;;
50779;SDS011;36748;37.428;-121.972;2023-04-01T16:10:34;1.45;;;0.73;;
50779;SDS011;36748;37.428;-121.972;2023-04-01T16:21:51;1.42;;;0.77;;
50779;SDS011;36748;37.428;-121.972;2023-04-01T16:24:45;1.73;;;0.85;;
50779;SDS011;36748;37.428;-121.972;2023-04-01T16:27:18;0.70;;;0.70;;
50779;SDS011;36748;37.428;-121.972;2023-04-01T16:29:53;2.05;;;0.90;;
50779;SDS011;36748;37.428;-121.972;2023-04-01T16:33:01;1.08;;;0.82;;
50779;SDS011;36748;37.428;-121.972;2023-04-01T16:35:47;1.73;;;0.95;;
50779;SDS011;36748;37.428;-121.972;2023-04-01T16:38:38;0.77;;;0.60;;
50779;SDS011;36748;37.428;-121.972;2023-04-01T16:41:24;0.70;;;0.68;;
50779;SDS011;36748;37.428;-121.972;2023-04-01T16:44:17;1.70;;;0.73;;
50779;SDS011;36748;37.428;-121.972;2023-04-01T16:46:58;0.85;;;0.70;;
50779;SDS011;36748;37.428;-121.972;2023-04-01T16:49:58;0.50;;;0.50;;
50779;SDS011;36748;37.428;-121.972;2023-04-01T16:55:49;1.48;;;0.98;;
50779;SDS011;36748;37.428;-121.972;2023-04-01T16:58:35;0.65;;;0.50;;
50779;SDS011;36748;37.428;-121.972;2023-04-01T17:01:37;4.03;;;1.05;;
50779;SDS011;36748;37.428;-121.972;2023-04-01T17:05:04;2.83;;;1.00;;
50779;SDS011;36748;37.428;-121.972;2023-04-01T17:07:20;1.13;;;0.70;;
50779;SDS011;36748;37.428;-121.972;2023-04-01T17:43:45;0.90;;;0.57;;
50779;SDS011;36748;37.428;-121.972;2023-04-01T17:49:19;2.15;;;0.90;;
50779;SDS011;36748;37.428;-121.972;2023-04-01T17:51:51;1.08;;;0.93;;
50779;SDS011;36748;37.428;-121.972;2023-04-01T18:00:39;1.85;;;0.80;;
50779;SDS011;36748;37.428;-121.972;2023-04-01T18:12:36;1.55;;;0.82;;
50779;SDS011;36748;37.428;-121.972;2023-04-01T18:21:03;1.08;;;0.60;;
50779;SDS011;36748;37.428;-121.972;2023-04-01T18:24:35;5.45;;;0.90;;
50779;SDS011;36748;37.428;-121.972;2023-04-01T18:26:44;1.73;;;0.88;;
50779;SDS011;36748;37.428;-121.972;2023-04-01T18:32:12;1.73;;;0.90;;
50779;SDS011;36748;37.428;-121.972;2023-04-01T18:34:44;2.33;;;0.73;;
50779;SDS011;36748;37.428;-121.972;2023-04-01T18:37:36;3.05;;;0.77;;
50779;SDS011;36748;37.428;-121.972;2023-04-01T18:40:51;3.67;;;0.90;;
50779;SDS011;36748;37.428;-121.972;2023-04-01T18:54:05;6.57;;;1.30;;
50779;SDS011;36748;37.428;-121.972;2023-04-01T18:57:16;3.25;;;1.10;;
50779;SDS011;36748;37.428;-121.972;2023-04-01T19:02:38;5.32;;;0.93;;
50779;SDS011;36748;37.428;-121.972;2023-04-01T19:05:16;1.45;;;1.05;;
50779;SDS011;36748;37.428;-121.972;2023-04-01T19:07:52;3.50;;;1.10;;
50779;SDS011;36748;37.428;-121.972;2023-04-01T19:10:26;9.52;;;1.08;;
50779;SDS011;36748;37.428;-121.972;2023-04-01T19:20:51;2.38;;;0.75;;
50779;SDS011;36748;37.428;-121.972;2023-04-01T19:26:32;3.63;;;0.88;;
50779;SDS011;36748;37.428;-121.972;2023-04-01T19:29:03;1.40;;;0.77;;
50779;SDS011;36748;37.428;-121.972;2023-04-01T19:40:09;3.80;;;1.08;;
50779;SDS011;36748;37.428;-121.972;2023-04-01T19:42:58;2.75;;;0.80;;
50779;SDS011;36748;37.428;-121.972;2023-04-01T19:45:34;4.22;;;0.95;;
50779;SDS011;36748;37.428;-121.972;2023-04-01T19:54:13;5.35;;;1.10;;
50779;SDS011;36748;37.428;-121.972;2023-04-01T20:04:42;5.93;;;1.00;;
50779;SDS011;36748;37.428;-121.972;2023-04-01T20:07:16;5.72;;;1.05;;
50779;SDS011;36748;37.428;-121.972;2023-04-01T20:10:03;2.75;;;0.88;;
50779;SDS011;36748;37.428;-121.972;2023-04-01T20:12:57;1.83;;;0.68;;
50779;SDS011;36748;37.428;-121.972;2023-04-01T20:15:30;4.22;;;1.10;;
50779;SDS011;36748;37.428;-121.972;2023-04-01T20:21:00;3.95;;;0.90;;
50779;SDS011;36748;37.428;-121.972;2023-04-01T20:26:02;3.85;;;1.20;;
50779;SDS011;36748;37.428;-121.972;2023-04-01T20:28:32;2.75;;;0.70;;
50779;SDS011;36748;37.428;-121.972;2023-04-01T20:36:27;2.85;;;0.98;;
50779;SDS011;36748;37.428;-121.972;2023-04-01T21:01:54;1.52;;;0.73;;
50779;SDS011;36748;37.428;-121.972;2023-04-01T21:07:34;1.77;;;0.88;;
50779;SDS011;36748;37.428;-121.972;2023-04-01T21:12:49;2.50;;;0.80;;
50779;SDS011;36748;37.428;-121.972;2023-04-01T21:37:15;2.30;;;0.90;;
50779;SDS011;36748;37.428;-121.972;2023-04-01T21:39:52;1.13;;;0.60;;
50779;SDS011;36748;37.428;-121.972;2023-04-01T22:05:34;1.65;;;0.85;;
50779;SDS011;36748;37.428;-121.972;2023-04-01T22:16:37;1.63;;;0.60;;
50779;SDS011;36748;37.428;-121.972;2023-04-01T22:22:04;2.72;;;0.60;;
50779;SDS011;36748;37.428;-121.972;2023-04-01T22:24:41;1.80;;;0.70;;
50779;SDS011;36748;37.428;-121.972;2023-04-01T22:32:43;1.63;;;0.70;;
50779;SDS011;36748;37.428;-121.972;2023-04-01T22:35:24;0.57;;;0.52;;
50779;SDS011;36748;37.428;-121.972;2023-04-01T22:48:45;1.80;;;0.60;;
50779;SDS011;36748;37.428;-121.972;2023-04-01T22:56:40;1.52;;;0.52;;
50779;SDS011;36748;37.428;-121.972;2023-04-01T22:59:16;1.48;;;0.70;;
50779;SDS011;36748;37.428;-121.972;2023-04-01T23:01:55;4.53;;;0.88;;
50779;SDS011;36748;37.428;-121.972;2023-04-01T23:04:30;1.25;;;0.70;;
50779;SDS011;36748;37.428;-121.972;2023-04-01T23:06:59;1.02;;;0.73;;
50779;SDS011;36748;37.428;-121.972;2023-04-01T23:09:31;1.65;;;0.70;;
50779;SDS011;36748;37.428;-121.972;2023-04-01T23:12:15;3.38;;;0.70;;
50779;SDS011;36748;37.428;-121.972;2023-04-01T23:14:52;1.30;;;0.65;;
50779;SDS011;36748;37.428;-121.972;2023-04-01T23:22:58;1.70;;;0.70;;
50779;SDS011;36748;37.428;-121.972;2023-04-01T23:26:12;0.60;;;0.35;;
50779;SDS011;36748;37.428;-121.972;2023-04-01T23:28:46;1.02;;;0.57;;
50779;SDS011;36748;37.428;-121.972;2023-04-01T23:34:21;1.08;;;0.60;;
50779;SDS011;36748;37.428;-121.972;2023-04-01T23:36:48;0.88;;;0.55;;
50779;SDS011;36748;37.428;-121.972;2023-04-01T23:42:07;2.28;;;0.68;;
50779;SDS011;36748;37.428;-121.972;2023-04-01T23:44:36;1.75;;;0.82;;
50779;SDS011;36748;37.428;-121.972;2023-04-01T23:47:03;1.00;;;0.60;;
50779;SDS011;36748;37.428;-121.972;2023-04-01T23:49:34;2.00;;;0.60;;
50779;SDS011;36748;37.428;-121.972;2023-04-01T23:57:17;3.05;;;0.80;;
